Time;durP1;ratioP1;P1;durP2;ratioP2;P2;SDS_P1;SDS_P2;PMS_P1;PMS_P2;Temp;Humidity;BMP_temperature;BMP_pressure;BME280_temperature;BME280_humidity;BME280_pressure;Samples;Min_cycle;Max_cycle;Signal;HPM_P1;HPM_P2
2023/10/25 00:00:55;;;;;;;4.80;4.03;;;7.90;99.90;;;;;;5012774;28;20186;-82
2023/10/25 00:03:20;;;;;;;6.20;4.50;;;7.90;99.90;;;;;;5011395;28;20181;-83
2023/10/25 00:05:46;;;;;;;5.07;4.30;;;7.90;99.90;;;;;;5012648;28;20182;-83
2023/10/25 00:08:11;;;;;;;5.53;3.77;;;7.90;99.90;;;;;;5011267;28;20265;-83
2023/10/25 00:10:37;;;;;;;5.67;4.07;;;7.90;99.90;;;;;;5012183;28;20252;-83
2023/10/25 00:13:03;;;;;;;5.77;4.70;;;7.70;99.90;;;;;;5012370;28;20177;-83
2023/10/25 00:15:29;;;;;;;5.53;4.30;;;7.70;99.90;;;;;;5012398;28;20198;-83
2023/10/25 00:17:54;;;;;;;5.50;4.53;;;7.70;99.90;;;;;;5012439;28;20684;-84
2023/10/25 00:20:20;;;;;;;5.83;4.50;;;7.70;99.90;;;;;;5012429;28;20253;-83
2023/10/25 00:22:45;;;;;;;6.77;4.47;;;7.80;99.90;;;;;;5012306;28;20588;-83
2023/10/25 00:25:11;;;;;;;5.10;4.23;;;7.80;99.90;;;;;;5012361;28;20186;-83
2023/10/25 00:27:37;;;;;;;5.60;4.63;;;7.90;99.90;;;;;;5012439;28;20252;-83
2023/10/25 00:30:03;;;;;;;6.17;4.40;;;8.00;99.90;;;;;;5011069;28;20187;-84
2023/10/25 00:32:29;;;;;;;6.40;4.90;;;8.10;99.90;;;;;;5010930;28;20229;-83
2023/10/25 00:34:54;;;;;;;5.97;4.23;;;8.20;99.90;;;;;;5011233;28;20175;-83
2023/10/25 00:37:20;;;;;;;6.17;4.70;;;8.20;99.90;;;;;;5011138;28;20191;-83
2023/10/25 00:39:46;;;;;;;4.73;4.03;;;8.20;99.90;;;;;;5010949;28;20199;-83
2023/10/25 00:42:11;;;;;;;5.17;4.30;;;8.30;99.90;;;;;;5012188;28;20175;-84
2023/10/25 00:44:37;;;;;;;4.47;3.97;;;8.30;99.90;;;;;;5010943;28;20214;-83
2023/10/25 00:47:03;;;;;;;5.43;4.37;;;8.30;99.90;;;;;;5012341;28;20257;-83
2023/10/25 00:49:28;;;;;;;8.93;4.20;;;8.30;99.90;;;;;;5011110;28;20269;-82
2023/10/25 00:51:55;;;;;;;6.00;4.57;;;8.30;99.90;;;;;;5010853;28;20610;-83
2023/10/25 00:54:21;;;;;;;6.63;4.13;;;8.30;99.90;;;;;;5011948;28;20175;-83
2023/10/25 00:56:48;;;;;;;5.37;4.43;;;8.20;99.90;;;;;;5013940;28;20175;-83
2023/10/25 00:59:15;;;;;;;11.03;6.80;;;8.30;99.90;;;;;;5014564;28;20285;-83
2023/10/25 01:01:41;;;;;;;9.67;6.27;;;8.40;99.90;;;;;;5015832;28;20252;-83
2023/10/25 01:04:07;;;;;;;9.00;5.80;;;8.50;99.90;;;;;;5014574;28;20179;-83
2023/10/25 01:06:33;;;;;;;8.47;6.00;;;8.50;99.90;;;;;;5015959;28;20175;-83
2023/10/25 01:08:59;;;;;;;9.40;6.90;;;8.50;99.90;;;;;;5014593;28;20352;-83
2023/10/25 01:11:25;;;;;;;8.50;6.30;;;8.60;99.90;;;;;;5015701;28;20195;-83
2023/10/25 01:13:51;;;;;;;8.17;5.97;;;8.70;99.90;;;;;;5014344;28;20183;-83
2023/10/25 01:16:16;;;;;;;8.93;6.50;;;8.70;99.90;;;;;;5014703;28;20175;-83
2023/10/25 01:18:42;;;;;;;8.60;6.10;;;8.70;99.90;;;;;;5065725;23;20223;-86
2023/10/25 01:21:08;;;;;;;10.70;7.20;;;8.80;99.90;;;;;;4996135;28;20176;-87
2023/10/25 01:23:34;;;;;;;10.97;6.40;;;8.80;99.90;;;;;;5010766;28;20678;-86
2023/10/25 01:26:00;;;;;;;13.40;7.43;;;8.80;99.90;;;;;;4994607;28;20171;-86
2023/10/25 01:28:25;;;;;;;14.43;8.57;;;8.90;99.90;;;;;;4995693;28;20623;-87
2023/10/25 01:30:52;;;;;;;13.97;8.50;;;8.90;99.90;;;;;;4995758;28;20214;-87
2023/10/25 01:33:17;;;;;;;14.57;8.83;;;8.90;99.90;;;;;;4994524;28;20178;-87
2023/10/25 01:35:43;;;;;;;12.53;8.03;;;9.00;99.90;;;;;;4994596;28;20175;-88
2023/10/25 01:38:08;;;;;;;15.67;9.17;;;9.00;99.90;;;;;;4994228;28;20188;-86
2023/10/25 01:40:34;;;;;;;14.97;7.97;;;9.00;99.90;;;;;;4995551;28;20175;-86
2023/10/25 01:43:00;;;;;;;13.37;8.23;;;9.10;99.90;;;;;;4993920;28;20180;-87
2023/10/25 01:45:27;;;;;;;15.73;8.53;;;9.10;99.90;;;;;;4994335;28;20234;-88
2023/10/25 01:47:52;;;;;;;15.27;8.77;;;9.10;99.90;;;;;;4994102;28;20180;-87
2023/10/25 01:50:19;;;;;;;16.60;9.07;;;9.20;99.90;;;;;;4993802;28;20222;-87
2023/10/25 01:52:45;;;;;;;15.23;9.53;;;9.20;99.90;;;;;;4994048;28;20182;-87
2023/10/25 01:55:10;;;;;;;13.53;9.00;;;9.20;99.90;;;;;;4994289;28;20179;-86
2023/10/25 01:57:36;;;;;;;14.73;9.37;;;9.20;99.90;;;;;;4993993;28;20180;-87
2023/10/25 02:00:03;;;;;;;14.57;8.73;;;9.20;99.90;;;;;;4995226;28;20207;-86
2023/10/25 02:02:28;;;;;;;12.57;8.47;;;9.30;99.90;;;;;;4993963;28;20183;-87
2023/10/25 02:04:54;;;;;;;13.57;8.97;;;9.30;99.90;;;;;;4995219;28;20193;-87
2023/10/25 02:07:20;;;;;;;14.73;9.07;;;9.30;99.90;;;;;;4993768;28;20717;-87
2023/10/25 02:09:45;;;;;;;13.57;8.57;;;9.30;99.90;;;;;;4994891;28;20196;-87
2023/10/25 02:12:11;;;;;;;13.43;8.70;;;9.20;99.90;;;;;;4993892;28;20294;-87
2023/10/25 02:14:36;;;;;;;11.13;8.23;;;9.20;99.90;;;;;;4993468;28;20176;-87
2023/10/25 02:17:02;;;;;;;12.73;8.63;;;9.20;99.90;;;;;;4993993;28;20198;-87
2023/10/25 02:19:28;;;;;;;12.93;8.67;;;9.20;99.90;;;;;;4995025;28;20207;-86
2023/10/25 02:21:54;;;;;;;11.43;7.83;;;9.20;99.90;;;;;;4993952;28;20233;-87
2023/10/25 02:24:19;;;;;;;11.97;8.37;;;9.30;99.90;;;;;;4993629;28;20175;-87
2023/10/25 02:26:45;;;;;;;12.13;8.10;;;9.20;99.90;;;;;;4993676;28;20172;-87
2023/10/25 02:29:11;;;;;;;10.83;7.87;;;9.30;99.90;;;;;;4993756;28;20202;-88
2023/10/25 02:31:37;;;;;;;12.00;8.00;;;9.20;99.90;;;;;;4994625;28;20199;-87
2023/10/25 02:34:03;;;;;;;10.00;7.77;;;9.10;99.90;;;;;;4993376;28;20172;-87
2023/10/25 02:36:30;;;;;;;11.43;8.20;;;9.10;99.90;;;;;;4994683;28;20164;-87
2023/10/25 02:38:56;;;;;;;9.90;7.30;;;9.10;99.90;;;;;;4994737;28;20250;-86
2023/10/25 02:41:22;;;;;;;11.00;7.53;;;9.10;99.90;;;;;;4993196;28;20182;-87
2023/10/25 02:43:51;;;;;;;11.70;8.47;;;9.10;99.90;;;;;;4994894;28;20229;-87
2023/10/25 02:46:16;;;;;;;11.63;8.03;;;9.10;99.90;;;;;;4993511;28;20187;-87
2023/10/25 02:48:42;;;;;;;10.80;7.93;;;9.10;99.90;;;;;;4994436;28;20199;-87
2023/10/25 02:51:08;;;;;;;9.83;7.77;;;9.10;99.90;;;;;;4993385;28;20202;-87
2023/10/25 02:53:34;;;;;;;11.80;8.33;;;9.10;99.90;;;;;;4993129;28;20207;-87
2023/10/25 02:56:01;;;;;;;11.47;7.60;;;9.10;99.90;;;;;;4993054;28;20230;-87
2023/10/25 02:58:27;;;;;;;10.33;7.53;;;9.20;99.90;;;;;;4994005;28;20254;-86
2023/10/25 03:00:52;;;;;;;12.90;8.47;;;9.20;99.90;;;;;;4992973;28;20180;-87
2023/10/25 03:03:18;;;;;;;12.33;8.57;;;9.20;99.90;;;;;;4994048;28;20168;-87
2023/10/25 03:05:44;;;;;;;9.87;7.67;;;9.20;99.90;;;;;;4992860;28;20215;-86
2023/10/25 03:08:09;;;;;;;10.13;7.43;;;9.20;99.90;;;;;;4992634;28;20330;-86
2023/10/25 03:10:35;;;;;;;10.83;7.10;;;9.30;99.90;;;;;;4992285;28;20663;-86
2023/10/25 03:13:02;;;;;;;10.03;7.27;;;9.30;99.90;;;;;;4993801;28;20175;-87
2023/10/25 03:15:28;;;;;;;11.33;7.83;;;9.30;99.90;;;;;;4992794;28;20172;-87
2023/10/25 03:17:54;;;;;;;10.27;7.60;;;9.30;99.90;;;;;;4992776;28;20182;-87
2023/10/25 03:20:20;;;;;;;10.37;7.30;;;9.30;99.90;;;;;;4991636;28;20207;-87
2023/10/25 03:22:46;;;;;;;10.13;7.03;;;9.40;99.90;;;;;;4992292;28;20283;-87
2023/10/25 03:25:11;;;;;;;9.37;6.97;;;9.40;99.90;;;;;;4992412;28;20176;-86
2023/10/25 03:27:37;;;;;;;9.17;7.23;;;9.40;99.90;;;;;;4992396;28;20176;-87
2023/10/25 03:30:03;;;;;;;9.77;6.77;;;9.40;99.90;;;;;;4992404;28;20191;-87
2023/10/25 03:32:29;;;;;;;9.33;7.20;;;9.40;99.90;;;;;;4992015;28;20286;-88
2023/10/25 03:34:54;;;;;;;11.07;6.80;;;9.40;99.90;;;;;;4993627;28;20262;-87
2023/10/25 03:37:20;;;;;;;9.60;7.37;;;9.40;99.90;;;;;;4992110;28;20666;-87
2023/10/25 03:39:45;;;;;;;7.63;6.83;;;9.40;99.90;;;;;;4993180;28;20207;-87
2023/10/25 03:42:11;;;;;;;8.77;7.13;;;9.40;99.90;;;;;;4993505;28;20250;-87
2023/10/25 03:44:37;;;;;;;8.83;7.23;;;9.40;99.90;;;;;;4993188;28;20175;-86
2023/10/25 03:47:03;;;;;;;10.70;7.33;;;9.40;99.90;;;;;;4991994;28;20183;-87
2023/10/25 03:49:29;;;;;;;10.13;6.73;;;9.40;99.90;;;;;;4993141;28;20197;-86
2023/10/25 03:51:54;;;;;;;9.07;7.10;;;9.40;99.90;;;;;;4993163;28;20656;-86
2023/10/25 03:54:20;;;;;;;10.03;7.07;;;9.40;99.90;;;;;;4993299;28;20222;-87
2023/10/25 03:56:46;;;;;;;7.80;6.53;;;9.40;99.90;;;;;;4993324;28;20260;-87
2023/10/25 03:59:12;;;;;;;8.40;6.93;;;9.40;99.90;;;;;;4992967;28;20209;-86
2023/10/25 04:01:38;;;;;;;7.87;6.43;;;9.40;99.90;;;;;;4992066;28;20191;-86
2023/10/25 04:04:06;;;;;;;8.80;5.97;;;9.40;99.90;;;;;;4991900;28;20202;-87
2023/10/25 04:06:32;;;;;;;9.37;7.10;;;9.40;99.90;;;;;;4991966;28;20180;-87
2023/10/25 04:08:58;;;;;;;8.67;6.10;;;9.40;99.90;;;;;;4991583;28;20203;-86
2023/10/25 04:11:23;;;;;;;7.10;5.90;;;9.40;99.90;;;;;;4992004;28;20206;-87
2023/10/25 04:13:49;;;;;;;8.87;6.30;;;9.30;99.90;;;;;;4991581;28;20180;-87
2023/10/25 04:16:15;;;;;;;6.40;5.70;;;9.30;99.90;;;;;;4993101;28;20199;-86
2023/10/25 04:18:40;;;;;;;7.50;5.60;;;9.30;99.90;;;;;;4992782;28;20210;-87
2023/10/25 04:21:12;;;;;;;9.13;5.67;;;9.30;99.90;;;;;;4991896;28;20176;-87
2023/10/25 04:23:38;;;;;;;7.30;5.67;;;9.30;99.90;;;;;;4991433;28;20230;-87
2023/10/25 04:26:07;;;;;;;6.40;5.70;;;9.20;99.90;;;;;;4991631;28;20263;-86
2023/10/25 04:28:34;;;;;;;9.57;6.10;;;9.20;99.90;;;;;;4991677;28;20250;-87
2023/10/25 04:31:00;;;;;;;6.77;5.60;;;9.10;99.90;;;;;;4993454;28;20202;-87
2023/10/25 04:33:26;;;;;;;6.07;5.37;;;9.10;99.90;;;;;;4995745;28;20171;-86
2023/10/25 04:35:52;;;;;;;5.63;5.03;;;9.10;99.90;;;;;;4995689;28;20175;-87
2023/10/25 04:38:18;;;;;;;7.47;5.70;;;9.10;99.90;;;;;;4995788;28;20202;-87
2023/10/25 04:40:44;;;;;;;6.73;5.43;;;9.10;99.90;;;;;;4996877;28;20186;-87
2023/10/25 04:43:09;;;;;;;4.93;4.43;;;9.10;99.90;;;;;;4995346;28;20659;-86
2023/10/25 04:45:35;;;;;;;4.80;4.30;;;9.00;99.90;;;;;;4995753;28;20176;-85
2023/10/25 04:48:01;;;;;;;5.53;4.93;;;9.00;99.90;;;;;;4996578;28;20175;-85
2023/10/25 04:50:32;;;;;;;5.67;5.07;;;8.90;99.90;;;;;;4996569;28;20176;-85
2023/10/25 04:52:58;;;;;;;5.67;4.13;;;8.90;99.90;;;;;;4996945;28;20255;-86
2023/10/25 04:55:26;;;;;;;6.90;4.23;;;8.80;99.90;;;;;;4995848;28;20171;-86
2023/10/25 04:57:51;;;;;;;4.17;3.77;;;8.70;99.90;;;;;;4995548;28;20171;-85
2023/10/25 05:00:17;;;;;;;10.17;3.43;;;8.70;99.90;;;;;;4995787;28;20546;-85
2023/10/25 05:02:43;;;;;;;4.07;3.40;;;8.70;99.90;;;;;;4994925;28;20179;-84
2023/10/25 05:05:08;;;;;;;5.53;3.97;;;8.60;99.90;;;;;;4996751;28;20179;-85
2023/10/25 05:07:37;;;;;;;7.50;4.30;;;8.50;99.90;;;;;;4997956;28;20183;-84
2023/10/25 05:10:06;;;;;;;4.90;4.17;;;8.40;99.90;;;;;;4998370;28;20220;-84
2023/10/25 05:12:43;;;;;;;4.90;4.40;;;8.30;99.90;;;;;;4996507;28;20207;-84
2023/10/25 05:15:11;;;;;;;5.10;4.43;;;8.20;99.90;;;;;;4997965;28;20177;-84
2023/10/25 05:17:38;;;;;;;5.13;4.23;;;8.20;99.90;;;;;;4997505;28;20286;-84
2023/10/25 05:20:05;;;;;;;4.97;3.47;;;8.20;99.90;;;;;;4995576;28;20233;-81
2023/10/25 05:22:34;;;;;;;7.63;4.20;;;8.10;99.90;;;;;;4997185;28;20563;-82
2023/10/25 05:25:00;;;;;;;4.20;3.80;;;8.10;99.90;;;;;;4998061;28;20247;-83
2023/10/25 05:27:25;;;;;;;4.20;3.80;;;8.10;99.90;;;;;;4997867;28;20202;-83
2023/10/25 05:29:51;;;;;;;4.50;3.60;;;8.10;99.90;;;;;;4997388;28;20245;-84
2023/10/25 05:32:19;;;;;;;4.57;3.70;;;8.00;99.90;;;;;;4995630;28;20674;-84
2023/10/25 05:34:46;;;;;;;3.67;3.33;;;8.00;99.90;;;;;;4995089;28;20183;-83
2023/10/25 05:37:12;;;;;;;4.80;2.70;;;8.10;99.90;;;;;;4994790;28;20560;-83
2023/10/25 05:39:38;;;;;;;3.73;3.30;;;8.00;99.90;;;;;;4994867;28;20203;-84
2023/10/25 05:42:06;;;;;;;4.33;3.50;;;8.00;99.90;;;;;;4995928;28;20187;-82
2023/10/25 05:44:32;;;;;;;4.50;2.97;;;8.10;99.90;;;;;;4994469;28;20183;-79
2023/10/25 05:46:58;;;;;;;4.50;3.00;;;8.60;99.90;;;;;;4996609;28;20183;-83
2023/10/25 05:49:24;;;;;;;4.33;3.30;;;9.10;99.90;;;;;;4995601;28;20208;-82
2023/10/25 05:51:50;;;;;;;3.70;3.00;;;9.50;99.90;;;;;;4996651;28;20218;-83
2023/10/25 05:54:15;;;;;;;4.00;2.93;;;9.70;99.90;;;;;;4997006;28;20178;-83
2023/10/25 05:56:41;;;;;;;4.87;2.50;;;9.90;99.90;;;;;;4996629;28;20202;-81
2023/10/25 05:59:07;;;;;;;4.57;2.40;;;10.10;99.90;;;;;;4995313;28;20242;-82
2023/10/25 06:01:50;;;;;;;4.70;2.53;;;10.10;99.90;;;;;;4995447;28;20246;-82
2023/10/25 06:04:17;;;;;;;3.30;2.97;;;10.20;99.90;;;;;;4996320;28;20186;-82
2023/10/25 06:06:44;;;;;;;2.80;2.40;;;10.20;99.80;;;;;;4994989;28;20183;-81
2023/10/25 06:09:11;;;;;;;3.07;2.27;;;10.20;53.10;;;;;;4997485;28;20202;-81
2023/10/25 06:11:40;;;;;;;4.90;2.70;;;10.20;29.40;;;;;;4998621;28;20211;-81
2023/10/25 06:14:07;;;;;;;3.93;2.47;;;10.30;16.30;;;;;;4995882;28;20172;-81
2023/10/25 06:16:33;;;;;;;3.30;3.00;;;10.40;1.00;;;;;;4994454;28;20176;-84
2023/10/25 06:18:59;;;;;;;5.13;3.53;;;10.10;1.00;;;;;;4995505;28;20223;-83
2023/10/25 06:21:24;;;;;;;3.87;3.27;;;9.90;75.60;;;;;;4995102;28;20215;-85
2023/10/25 06:23:51;;;;;;;3.67;2.97;;;9.60;84.10;;;;;;4994094;28;20265;-84
2023/10/25 06:26:16;;;;;;;3.00;2.70;;;9.20;99.90;;;;;;4995703;28;20187;-85
2023/10/25 06:28:42;;;;;;;3.83;2.97;;;8.80;99.90;;;;;;4995122;28;20234;-84
2023/10/25 06:31:14;;;;;;;10.07;6.43;;;8.50;99.90;;;;;;4993874;28;20215;-84
2023/10/25 06:33:43;;;;;;;10.67;5.13;;;8.10;99.90;;;;;;4993930;28;20179;-84
2023/10/25 06:36:10;;;;;;;5.67;3.43;;;7.90;99.90;;;;;;4993833;28;20179;-84
2023/10/25 06:38:36;;;;;;;6.20;3.40;;;7.80;99.90;;;;;;4994507;28;20196;-85
2023/10/25 06:41:02;;;;;;;3.70;3.40;;;7.80;99.90;;;;;;4994648;28;20180;-84
2023/10/25 06:43:29;;;;;;;3.77;3.47;;;7.80;99.90;;;;;;4993636;28;20183;-84
2023/10/25 06:45:55;;;;;;;3.73;3.40;;;7.80;99.90;;;;;;4994609;28;20672;-84
2023/10/25 06:48:21;;;;;;;3.17;2.87;;;7.80;99.90;;;;;;4994537;28;20204;-83
2023/10/25 06:50:47;;;;;;;4.80;2.93;;;7.80;99.90;;;;;;4994440;28;20226;-83
2023/10/25 06:53:13;;;;;;;3.17;2.77;;;7.80;99.90;;;;;;4994290;28;20644;-84
2023/10/25 06:55:39;;;;;;;3.10;2.80;;;7.70;99.90;;;;;;4994097;28;20176;-83
2023/10/25 06:58:05;;;;;;;3.50;3.20;;;7.70;99.90;;;;;;4992886;28;20213;-84
2023/10/25 07:00:31;;;;;;;4.00;3.00;;;7.70;99.90;;;;;;4993146;28;20186;-83
2023/10/25 07:03:02;;;;;;;4.47;2.80;;;7.70;99.90;;;;;;4992819;28;20180;-84
2023/10/25 07:05:28;;;;;;;3.33;2.33;;;7.60;99.90;;;;;;4992849;28;20262;-84
2023/10/25 07:07:55;;;;;;;3.53;2.63;;;7.60;99.90;;;;;;4992558;28;20182;-83
2023/10/25 07:10:21;;;;;;;5.63;2.80;;;7.60;99.90;;;;;;4993938;28;20203;-84
2023/10/25 07:12:47;;;;;;;3.30;2.47;;;7.50;99.90;;;;;;4993946;28;20175;-82
2023/10/25 07:15:13;;;;;;;4.27;2.87;;;7.50;99.90;;;;;;4992750;28;20266;-84
2023/10/25 07:17:39;;;;;;;3.13;2.60;;;7.50;99.90;;;;;;4992789;28;20243;-83
2023/10/25 07:20:09;;;;;;;3.10;2.40;;;7.50;99.90;;;;;;4994304;28;20235;-84
2023/10/25 07:22:35;;;;;;;3.50;2.80;;;7.60;99.90;;;;;;4993612;28;20188;-84
2023/10/25 07:25:01;;;;;;;3.97;2.90;;;7.70;99.90;;;;;;4992678;28;20651;-84
2023/10/25 07:27:27;;;;;;;5.07;2.77;;;7.70;99.90;;;;;;4992325;28;20176;-84
2023/10/25 07:29:52;;;;;;;5.27;2.90;;;7.80;99.90;;;;;;4993565;28;20228;-84
2023/10/25 07:32:18;;;;;;;3.63;2.73;;;7.80;99.90;;;;;;4993670;28;20723;-84
2023/10/25 07:34:44;;;;;;;4.03;3.37;;;7.90;99.90;;;;;;4993895;28;20179;-84
2023/10/25 07:37:09;;;;;;;3.33;3.00;;;7.90;99.90;;;;;;4992486;28;20191;-84
2023/10/25 07:39:35;;;;;;;5.93;3.40;;;8.00;99.90;;;;;;4992431;28;20202;-84
2023/10/25 07:42:04;;;;;;;3.73;3.33;;;8.00;99.90;;;;;;4992281;28;20183;-84
2023/10/25 07:44:29;;;;;;;3.67;3.07;;;8.10;99.90;;;;;;4993462;28;20179;-85
2023/10/25 07:46:55;;;;;;;4.07;3.53;;;8.20;99.90;;;;;;4992370;28;20180;-86
2023/10/25 07:49:21;;;;;;;3.80;3.40;;;8.20;99.90;;;;;;4992021;28;20238;-83
2023/10/25 07:51:46;;;;;;;4.73;3.60;;;8.20;99.90;;;;;;4993359;28;20199;-84
2023/10/25 07:54:12;;;;;;;5.07;3.50;;;8.30;99.90;;;;;;4993349;28;20606;-84
2023/10/25 07:56:37;;;;;;;4.60;3.10;;;8.40;99.90;;;;;;4992283;28;20637;-84
2023/10/25 07:59:03;;;;;;;4.87;3.47;;;8.30;99.90;;;;;;4993421;28;20198;-84
2023/10/25 08:01:29;;;;;;;4.17;3.77;;;8.40;99.90;;;;;;4993600;28;20175;-84
2023/10/25 08:03:55;;;;;;;5.47;3.77;;;8.50;99.90;;;;;;4993155;28;20580;-84
2023/10/25 08:06:21;;;;;;;4.83;4.07;;;8.50;99.90;;;;;;4992486;28;20176;-84
2023/10/25 08:08:49;;;;;;;4.90;4.10;;;8.60;99.90;;;;;;4991845;28;20221;-83
2023/10/25 08:11:14;;;;;;;5.20;4.33;;;8.70;99.90;;;;;;4993354;28;20237;-84
2023/10/25 08:13:42;;;;;;;5.63;3.93;;;8.90;99.90;;;;;;4991511;28;20178;-84
2023/10/25 08:16:08;;;;;;;5.37;3.70;;;9.00;99.90;;;;;;4991923;28;20276;-83
2023/10/25 08:18:34;;;;;;;4.10;3.50;;;9.10;99.90;;;;;;4992987;28;20207;-84
2023/10/25 08:21:00;;;;;;;4.37;3.90;;;9.20;99.90;;;;;;4993319;28;20168;-84
2023/10/25 08:23:26;;;;;;;6.00;4.10;;;9.30;99.90;;;;;;4993371;28;20172;-82
2023/10/25 08:25:51;;;;;;;6.13;3.60;;;9.40;99.90;;;;;;4993124;28;20175;-84
2023/10/25 08:28:20;;;;;;;4.60;3.83;;;9.60;99.90;;;;;;4993247;28;20262;-84
2023/10/25 08:30:45;;;;;;;6.00;4.53;;;9.80;99.90;;;;;;4991953;28;20210;-83
2023/10/25 08:33:11;;;;;;;5.47;4.23;;;9.90;99.90;;;;;;4992999;28;20180;-83
2023/10/25 08:35:37;;;;;;;5.27;4.03;;;9.90;99.90;;;;;;4991465;28;20175;-84
2023/10/25 08:38:06;;;;;;;7.50;4.70;;;10.00;99.90;;;;;;4991838;28;20261;-83
2023/10/25 08:40:32;;;;;;;5.50;4.73;;;10.00;99.90;;;;;;4991614;28;20175;-83
2023/10/25 08:43:01;;;;;;;7.03;4.87;;;10.10;99.90;;;;;;4991699;28;20172;-84
2023/10/25 08:45:29;;;;;;;4.83;4.27;;;10.30;99.90;;;;;;4992831;28;20187;-83
2023/10/25 08:47:54;;;;;;;4.93;4.10;;;10.60;99.90;;;;;;4992728;28;20664;-83
2023/10/25 08:50:20;;;;;;;4.70;2.73;;;10.80;99.90;;;;;;4991336;28;20222;-83
2023/10/25 08:52:49;;;;;;;3.60;2.40;;;10.90;99.90;;;;;;4992716;28;20180;-84
2023/10/25 08:55:19;;;;;;;3.00;2.20;;;11.00;99.90;;;;;;4993081;28;20705;-83
2023/10/25 08:57:45;;;;;;;3.40;2.60;;;11.10;99.90;;;;;;4992594;28;20263;-83
2023/10/25 09:00:12;;;;;;;3.07;2.10;;;11.20;99.90;;;;;;4991574;28;20338;-83
2023/10/25 09:02:38;;;;;;;4.57;2.33;;;11.30;99.90;;;;;;4992359;28;20655;-83
2023/10/25 09:05:08;;;;;;;3.27;2.30;;;11.50;99.90;;;;;;4991572;28;20183;-83
2023/10/25 09:07:36;;;;;;;3.90;2.40;;;11.60;99.90;;;;;;4991579;28;20180;-84
2023/10/25 09:10:11;;;;;;;3.83;2.40;;;11.80;99.90;;;;;;4992466;28;20196;-84
2023/10/25 09:12:37;;;;;;;3.47;2.67;;;11.80;99.90;;;;;;4991072;28;20214;-84
2023/10/25 09:15:03;;;;;;;3.93;2.53;;;11.90;99.90;;;;;;4991373;28;20176;-83
2023/10/25 09:17:31;;;;;;;3.73;2.27;;;12.00;99.90;;;;;;4993699;28;20182;-83
2023/10/25 09:19:56;;;;;;;3.30;2.30;;;12.20;99.90;;;;;;4994869;28;20215;-84
2023/10/25 09:22:22;;;;;;;3.23;1.90;;;12.10;99.90;;;;;;4994964;28;20191;-81
2023/10/25 09:24:49;;;;;;;4.13;2.10;;;12.20;99.90;;;;;;4996235;28;20251;-83
2023/10/25 09:27:15;;;;;;;2.40;1.90;;;12.40;99.90;;;;;;4995290;28;20175;-84
2023/10/25 09:29:40;;;;;;;22.33;14.00;;;12.30;99.90;;;;;;4996087;28;20654;-84
2023/10/25 09:32:07;;;;;;;29.77;19.03;;;12.50;99.90;;;;;;4997117;28;20207;-85
2023/10/25 09:34:37;;;;;;;8.77;5.03;;;12.60;99.90;;;;;;4995764;28;20180;-84
2023/10/25 09:37:09;;;;;;;3.33;2.00;;;12.90;97.30;;;;;;4997800;28;20208;-84
2023/10/25 09:39:38;;;;;;;4.17;2.33;;;12.90;1.00;;;;;;4997483;28;20206;-86
2023/10/25 09:42:13;;;;;;;4.50;3.37;;;13.00;99.90;;;;;;4996305;28;20184;-85
2023/10/25 09:44:45;;;;;;;5.63;2.10;;;13.20;99.90;;;;;;4995780;28;20214;-84
2023/10/25 09:47:11;;;;;;;3.33;2.30;;;13.20;1.00;;;;;;4996967;28;20230;-85
2023/10/25 09:49:43;;;;;;;2.63;2.13;;;12.90;6.10;;;;;;4996854;28;20214;-84
2023/10/25 09:52:20;;;;;;;7.67;3.20;;;12.90;1.00;;;;;;4995936;28;20235;-84
2023/10/25 09:54:58;;;;;;;3.00;2.20;;;13.10;53.00;;;;;;4995905;28;20556;-85
2023/10/25 09:57:28;;;;;;;4.03;2.37;;;13.20;24.10;;;;;;4996038;28;20182;-84
2023/10/25 09:59:56;;;;;;;2.83;2.23;;;13.70;50.10;;;;;;4996713;28;20200;-80
2023/10/25 10:02:58;;;;;;;5.70;3.10;;;13.80;1.00;;;;;;4998118;28;20183;-83
2023/10/25 10:05:38;;;;;;;4.83;2.30;;;14.00;1.00;;;;;;4996815;28;20254;-83
2023/10/25 10:08:43;;;;;;;2.77;1.80;;;14.50;1.00;;;;;;4998150;28;20182;-84
2023/10/25 10:11:17;;;;;;;10.17;3.47;;;14.60;1.00;;;;;;4974011;28;20269;-83
2023/10/25 10:13:43;;;;;;;4.83;2.33;;;14.50;1.00;;;;;;4993819;28;20176;-83
2023/10/25 10:16:11;;;;;;;1.80;1.70;;;14.50;1.00;;;;;;4995684;28;20175;-83
2023/10/25 10:18:44;;;;;;;2.73;2.00;;;14.30;1.00;;;;;;4996116;28;20207;-84
2023/10/25 10:21:10;;;;;;;2.97;2.10;;;14.00;99.90;;;;;;4995916;28;20210;-83
2023/10/25 10:23:51;;;;;;;3.37;2.30;;;13.60;99.90;;;;;;4995037;28;20188;-84
2023/10/25 10:26:46;;;;;;;3.07;2.00;;;13.50;1.00;;;;;;4994078;28;20237;-84
2023/10/25 10:29:33;;;;;;;2.67;2.10;;;13.30;1.00;;;;;;4994539;28;20199;-84
2023/10/25 10:32:03;;;;;;;3.30;2.23;;;13.50;1.00;;;;;;4995105;28;20676;-84
2023/10/25 10:34:48;;;;;;;3.97;2.23;;;13.60;1.00;;;;;;4993416;28;20655;-83
2023/10/25 10:37:21;;;;;;;2.67;2.20;;;13.40;1.00;;;;;;4993832;28;20184;-80
2023/10/25 10:39:56;;;;;;;2.27;2.00;;;13.30;1.00;;;;;;4993731;28;20192;-85
2023/10/25 10:42:31;;;;;;;2.93;2.60;;;13.50;1.00;;;;;;4995265;28;20206;-85
2023/10/25 10:44:57;;;;;;;3.43;2.73;;;13.80;52.10;;;;;;4993931;28;20663;-84
2023/10/25 10:47:32;;;;;;;3.07;2.30;;;14.10;1.00;;;;;;4995350;28;20230;-84
2023/10/25 10:50:10;;;;;;;4.73;2.73;;;14.10;1.00;;;;;;4993941;28;20199;-83
2023/10/25 10:52:35;;;;;;;5.70;3.30;;;13.90;1.00;;;;;;4994782;28;20578;-83
2023/10/25 10:55:01;;;;;;;4.40;2.57;;;14.20;1.00;;;;;;4994971;28;20663;-85
2023/10/25 10:57:27;;;;;;;3.90;2.77;;;14.30;99.90;;;;;;4994879;28;20175;-83
2023/10/25 10:59:54;;;;;;;3.83;3.00;;;14.00;1.00;;;;;;4993526;28;20200;-83
2023/10/25 11:02:20;;;;;;;3.03;2.73;;;13.90;99.90;;;;;;4994923;28;20187;-83
2023/10/25 11:04:47;;;;;;;3.23;2.53;;;13.70;1.00;;;;;;4993551;28;20184;-83
2023/10/25 11:07:12;;;;;;;3.47;2.70;;;13.70;1.00;;;;;;4993501;28;20679;-83
2023/10/25 11:09:38;;;;;;;4.97;3.00;;;13.60;99.90;;;;;;4993730;28;20200;-80
2023/10/25 11:12:15;;;;;;;4.33;3.40;;;13.30;1.00;;;;;;4993973;28;20210;-83
2023/10/25 11:14:45;;;;;;;4.07;3.47;;;13.20;1.00;;;;;;4992707;28;20674;-83
2023/10/25 11:17:12;;;;;;;5.13;4.30;;;13.10;1.00;;;;;;4992929;28;20231;-83
2023/10/25 11:19:37;;;;;;;5.97;4.50;;;13.10;1.00;;;;;;4992512;28;20746;-82
2023/10/25 11:22:03;;;;;;;5.43;3.93;;;13.10;1.00;;;;;;4992585;28;20172;-83
2023/10/25 11:24:29;;;;;;;5.50;3.93;;;12.90;1.00;;;;;;4983187;28;20183;-83
2023/10/25 11:26:55;;;;;;;5.00;3.97;;;13.00;1.00;;;;;;4994152;28;20176;-83
2023/10/25 11:29:25;;;;;;;6.80;4.40;;;13.00;1.00;;;;;;5008186;28;20210;-82
2023/10/25 11:31:52;;;;;;;6.53;4.63;;;12.80;21.80;;;;;;4993628;28;20207;-83
2023/10/25 11:34:22;;;;;;;6.93;4.23;;;12.60;29.50;;;;;;4993471;28;20160;-83
2023/10/25 11:36:49;;;;;;;7.27;4.63;;;12.40;99.90;;;;;;5008502;28;20183;-83
2023/10/25 11:39:15;;;;;;;7.93;5.40;;;12.30;99.90;;;;;;4993737;28;20199;-83
2023/10/25 11:41:42;;;;;;;6.47;5.00;;;12.20;99.90;;;;;;5008001;28;20556;-82
2023/10/25 11:44:08;;;;;;;6.57;5.17;;;12.10;99.90;;;;;;4993320;28;20535;-83
2023/10/25 11:46:38;;;;;;;7.03;5.10;;;12.10;99.90;;;;;;5008681;28;20175;-83
2023/10/25 11:49:05;;;;;;;6.90;5.33;;;12.00;99.90;;;;;;5008525;28;20202;-83
2023/10/25 11:51:35;;;;;;;5.80;4.67;;;12.00;99.90;;;;;;5008350;28;20196;-83
2023/10/25 11:54:02;;;;;;;6.27;4.70;;;12.10;99.90;;;;;;4993375;28;20178;-83
2023/10/25 11:56:28;;;;;;;6.43;5.17;;;12.00;99.90;;;;;;4993338;28;20561;-83
2023/10/25 11:58:53;;;;;;;6.57;4.70;;;12.00;99.90;;;;;;4993672;28;20285;-83
2023/10/25 12:01:19;;;;;;;7.20;4.80;;;12.00;99.90;;;;;;5009293;28;20178;-83
2023/10/25 12:03:45;;;;;;;6.27;4.60;;;12.00;99.90;;;;;;5009108;28;20179;-83
2023/10/25 12:06:11;;;;;;;5.03;4.53;;;12.00;99.90;;;;;;5008599;28;20558;-83
2023/10/25 12:08:40;;;;;;;6.63;4.77;;;12.00;99.90;;;;;;5008200;28;20629;-83
2023/10/25 12:11:06;;;;;;;4.37;3.97;;;12.00;99.90;;;;;;4993200;28;20196;-83
2023/10/25 12:13:32;;;;;;;4.87;4.17;;;12.10;99.90;;;;;;5007794;28;20179;-84
2023/10/25 12:15:57;;;;;;;5.60;4.30;;;12.10;99.90;;;;;;4993175;28;20172;-83
2023/10/25 12:18:23;;;;;;;6.53;4.47;;;12.20;99.90;;;;;;5008110;28;20191;-83
2023/10/25 12:20:48;;;;;;;5.03;4.50;;;12.30;99.90;;;;;;4992943;28;20175;-83
2023/10/25 12:23:14;;;;;;;5.80;4.73;;;12.40;99.90;;;;;;4992814;28;20233;-83
2023/10/25 12:25:39;;;;;;;5.03;4.20;;;12.30;99.90;;;;;;4992939;28;20222;-83
2023/10/25 12:28:05;;;;;;;5.27;4.60;;;12.30;99.90;;;;;;4991771;28;20175;-83
2023/10/25 12:30:31;;;;;;;6.17;4.37;;;12.20;99.90;;;;;;5007903;28;20226;-80
2023/10/25 12:32:56;;;;;;;6.30;4.30;;;12.10;99.90;;;;;;5007932;28;20172;-83
2023/10/25 12:35:22;;;;;;;4.97;4.13;;;12.00;99.90;;;;;;4991460;28;20204;-83
2023/10/25 12:37:48;;;;;;;5.30;4.57;;;12.10;99.90;;;;;;4992814;28;20171;-83
2023/10/25 12:40:13;;;;;;;4.90;4.40;;;12.10;99.90;;;;;;4993080;28;20191;-83
2023/10/25 12:42:39;;;;;;;4.50;4.10;;;12.10;99.90;;;;;;5007767;28;20180;-84
2023/10/25 12:45:05;;;;;;;6.03;4.70;;;12.20;99.90;;;;;;4993092;28;20176;-83
2023/10/25 12:47:30;;;;;;;5.93;4.67;;;12.20;99.90;;;;;;5007946;28;20652;-83
2023/10/25 12:49:56;;;;;;;5.60;4.50;;;12.00;99.90;;;;;;5007815;28;20294;-83
2023/10/25 12:52:21;;;;;;;4.47;4.07;;;12.00;99.90;;;;;;5008991;28;20208;-83